Aérodrome :
LOGIN :

S'inscrire | Disclaimer

   EN    FR    IT 

 










Légende :    VFR   VFR Marginal   IFR   IFR Intensif   IFR Très Intensif
Visi : 
Plafond : 
>= 8 km
>= 3000ft
5 à 8 km
1000 à 3000 ft
1500m à 5 km
500 à 1000 ft
800 à 1500m
200 à 500 ft
< 800m
< 200 ft
Symboles :   Orages  Brouillard  Fortes neiges  Fortes précipitations  Vent > 20 kt
SIGMETs :   Divers  Orages  Givrage  Turbulence  Onde Orograph.  Cendres Volcan.







- Altitude de l'aérodrome : 1197 ft
- Code IATA : SPM


ETAD - Spangdahlem Ab

DERNIER METAR :
  • 242056Z AUTO 00000KT 9999 CLR 05/M01 A3024 RMK AO2 SLP241 T00511007 50002 $

METARs EXPIRÉS :
  • 241956Z AUTO 32005KT 9999 CLR 06/00 A3025 RMK AO2 SLP245 T00580001 $
  • 241756Z AUTO 35003KT 9999 CLR 09/02 A3024 RMK AO2 SLP240 T00850019 10115 20085 56004 $

TAF TAF ETAD
Valide du 24 à 19h jusqu'au 26 à 01h UTC


241856Z 2419/2601 33006KT 9999 FEW045 QNH3018INS
BECMG 2501/2502 27009KT 9999 BKN020 QNH3016INS
BECMG 2504/2505 29012KT 9999 OVC009 620154 QNH3016INS
BECMG 2506/2507 33012G22KT 9000 -SHRA OVC010 620159 QNH3016INS
BECMG 2508/2509 33012G25KT 9999 NSW FEW015 SCT030 QNH3018INS
BECMG 2517/2518 34012G22KT 9999 BKN030 QNH3024INS TX08/2514Z TN01/2502Z LAST NO AMDS AFT 2419 NEXT 2505
Pas de NOTAMs connus pour ce terrain.



MET'MAP, la Météo Aéronautique d'un coup d'oeil ! - Copyright ORBIFLY Décembre 2007 - Disclaimer

ORBIFLY MET'MAP TEAM :

Programmation & Développement : Alexandra Zaïnal
Conception & Développement : Baudouin d'Aumeries
Co-Programmation & Développement : Marc-Olivier Méhu
Soutien technique & logistique : Manuel Goepfert

Contact : metmap@orbifly.com




SOURCES & CREDITS :

   NOAA